createdAt,value
2019-05-14T00:00:44.918Z,99.90
2019-05-14T00:03:14.732Z,99.90
2019-05-14T00:05:44.535Z,99.90
2019-05-14T00:08:17.481Z,99.90
2019-05-14T00:10:46.412Z,99.90
2019-05-14T00:13:16.610Z,99.90
2019-05-14T00:15:46.521Z,99.90
2019-05-14T00:18:16.414Z,99.90
2019-05-14T00:20:46.667Z,99.90
2019-05-14T00:23:16.594Z,99.90
2019-05-14T00:25:46.467Z,99.90
2019-05-14T00:28:16.639Z,99.90
2019-05-14T00:30:46.874Z,99.90
2019-05-14T00:33:16.780Z,99.90
2019-05-14T00:35:46.738Z,99.90
2019-05-14T00:38:16.614Z,99.90
2019-05-14T00:40:46.529Z,99.90
2019-05-14T00:43:16.724Z,99.90
2019-05-14T00:45:47.226Z,99.90
2019-05-14T00:48:17.510Z,99.90
2019-05-14T00:50:47.370Z,99.90
2019-05-14T00:53:17.333Z,99.90
2019-05-14T00:55:47.455Z,99.90
2019-05-14T00:58:17.366Z,99.90
2019-05-14T01:00:47.537Z,99.90
2019-05-14T01:03:17.873Z,99.90
2019-05-14T01:05:47.839Z,99.90
2019-05-14T01:08:17.713Z,99.90
2019-05-14T01:10:47.957Z,99.90
2019-05-14T01:13:17.865Z,99.90
2019-05-14T01:15:48.165Z,99.90
2019-05-14T01:18:18.314Z,99.90
2019-05-14T01:20:48.207Z,99.90
2019-05-14T01:23:18.113Z,99.90
2019-05-14T01:25:48.259Z,99.90
2019-05-14T01:28:18.166Z,99.90
2019-05-14T01:30:48.427Z,99.90
2019-05-14T01:33:18.231Z,99.90
2019-05-14T01:35:48.089Z,99.90
2019-05-14T01:38:21.913Z,99.90
2019-05-14T01:40:52.388Z,99.90
2019-05-14T01:43:22.922Z,99.90
2019-05-14T01:45:53.155Z,99.90
2019-05-14T01:48:22.994Z,99.90
2019-05-14T01:50:53.149Z,99.90
2019-05-14T01:53:23.044Z,99.90
2019-05-14T01:55:52.946Z,99.90
2019-05-14T01:58:23.099Z,99.90
2019-05-14T02:00:53.407Z,99.90
2019-05-14T02:03:23.242Z,99.90
2019-05-14T02:05:53.358Z,99.90
2019-05-14T02:08:23.288Z,99.90
2019-05-14T02:10:53.198Z,99.90
2019-05-14T02:13:23.410Z,99.90
2019-05-14T02:15:53.541Z,99.90
2019-05-14T02:18:23.530Z,99.90
2019-05-14T02:20:53.978Z,99.90
2019-05-14T02:23:23.843Z,99.90
2019-05-14T02:25:53.700Z,99.90
2019-05-14T02:28:23.692Z,99.90
2019-05-14T02:30:59.073Z,99.90
2019-05-14T02:33:25.732Z,99.90
2019-05-14T02:35:55.650Z,99.90
2019-05-14T02:38:25.587Z,99.90
2019-05-14T02:40:55.782Z,99.90
2019-05-14T02:43:29.057Z,99.90
2019-05-14T02:46:10.925Z,99.90
2019-05-14T02:48:29.700Z,99.90
2019-05-14T02:51:00.210Z,99.90
2019-05-14T02:53:30.486Z,99.90
2019-05-14T02:56:00.768Z,99.90
2019-05-14T02:58:31.030Z,99.90
2019-05-14T03:01:01.019Z,99.90
2019-05-14T03:03:30.938Z,99.90
2019-05-14T03:06:01.370Z,99.90
2019-05-14T03:08:31.370Z,99.90
2019-05-14T03:11:01.302Z,99.90
2019-05-14T03:13:31.382Z,99.90
2019-05-14T03:16:20.681Z,99.90
2019-05-14T03:18:34.252Z,99.90
2019-05-14T03:21:04.171Z,99.90
2019-05-14T03:23:34.160Z,99.90
2019-05-14T03:26:04.711Z,99.90
2019-05-14T03:28:34.650Z,99.90
2019-05-14T03:31:05.251Z,99.90
2019-05-14T03:33:35.443Z,99.90
2019-05-14T03:36:09.499Z,99.90
2019-05-14T03:38:39.681Z,99.90
2019-05-14T03:41:10.663Z,99.90
2019-05-14T03:43:40.770Z,99.90
2019-05-14T03:46:11.109Z,99.90
2019-05-14T03:48:41.317Z,99.90
2019-05-14T03:51:11.352Z,99.90
2019-05-14T03:53:55.299Z,99.90
2019-05-14T03:56:13.307Z,99.90
2019-05-14T03:58:43.142Z,99.90
2019-05-14T04:01:13.700Z,99.90
2019-05-14T04:03:44.170Z,99.90
2019-05-14T04:06:14.921Z,99.90
2019-05-14T04:08:49.512Z,99.90
2019-05-14T04:11:20.206Z,99.90
2019-05-14T04:13:52.647Z,99.90
2019-05-14T04:16:24.370Z,99.90
2019-05-14T04:18:55.584Z,99.90
2019-05-14T04:21:29.903Z,99.90
2019-05-14T04:24:01.519Z,99.90
2019-05-14T04:26:51.784Z,99.90
2019-05-14T04:29:10.101Z,99.90
2019-05-14T04:31:42.151Z,99.90
2019-05-14T04:34:14.798Z,99.90
2019-05-14T04:36:45.731Z,99.90
2019-05-14T04:39:19.317Z,99.90
2019-05-14T04:41:49.813Z,99.90
2019-05-14T04:44:19.787Z,99.90
2019-05-14T04:46:49.740Z,99.90
2019-05-14T04:49:20.090Z,99.90
2019-05-14T04:51:50.768Z,99.90
2019-05-14T04:54:20.622Z,99.90
2019-05-14T04:56:51.087Z,99.90
2019-05-14T04:59:21.635Z,99.90
2019-05-14T05:01:51.516Z,99.90
2019-05-14T05:04:21.344Z,99.90
2019-05-14T05:06:51.583Z,99.90
2019-05-14T05:09:21.494Z,99.90
2019-05-14T05:11:51.394Z,99.90
2019-05-14T05:14:23.747Z,99.90
2019-05-14T05:16:52.934Z,99.90
2019-05-14T05:19:23.032Z,99.90
2019-05-14T05:21:52.907Z,99.90
2019-05-14T05:24:22.794Z,99.90
2019-05-14T05:26:53.084Z,99.90
2019-05-14T05:29:22.941Z,99.90
2019-05-14T05:31:53.061Z,99.90
2019-05-14T05:34:23.240Z,99.90
2019-05-14T05:36:53.220Z,99.90
2019-05-14T05:39:23.076Z,99.90
2019-05-14T05:41:53.400Z,99.90
2019-05-14T05:44:23.292Z,99.90
2019-05-14T05:46:53.319Z,99.90
2019-05-14T05:49:24.389Z,99.90
2019-05-14T05:51:54.699Z,99.90
2019-05-14T05:54:24.686Z,99.90
2019-05-14T05:56:55.229Z,99.90
2019-05-14T05:59:25.453Z,99.90
2019-05-14T06:01:58.733Z,99.90
2019-05-14T06:04:28.987Z,99.90
2019-05-14T06:07:02.523Z,99.90
2019-05-14T06:09:31.260Z,99.90
2019-05-14T06:12:01.372Z,99.90
2019-05-14T06:14:31.850Z,99.90
2019-05-14T06:17:02.762Z,99.90
2019-05-14T06:19:32.597Z,99.90
2019-05-14T06:22:04.292Z,99.90
2019-05-14T06:24:34.648Z,99.90
2019-05-14T06:27:04.530Z,99.90
2019-05-14T06:29:34.448Z,99.90
2019-05-14T06:32:04.701Z,99.90
2019-05-14T06:34:34.624Z,99.90
2019-05-14T06:37:04.599Z,99.90
2019-05-14T06:39:34.860Z,99.90
2019-05-14T06:42:04.692Z,99.90
2019-05-14T06:44:34.629Z,99.90
2019-05-14T06:47:05.025Z,99.90
2019-05-14T06:49:34.831Z,99.90
2019-05-14T06:52:04.809Z,99.90
2019-05-14T06:54:35.112Z,99.90
2019-05-14T06:57:04.968Z,99.90
2019-05-14T06:59:34.866Z,99.90
2019-05-14T07:02:05.385Z,99.90
2019-05-14T07:04:35.347Z,99.90
2019-05-14T07:07:05.255Z,99.90
2019-05-14T07:09:35.409Z,99.90
2019-05-14T07:12:05.437Z,99.90
2019-05-14T07:14:35.447Z,99.90
2019-05-14T07:17:08.818Z,99.90
2019-05-14T07:19:38.481Z,99.90
2019-05-14T07:22:09.218Z,99.90
2019-05-14T07:24:40.649Z,99.90
2019-05-14T07:27:11.253Z,99.90
2019-05-14T07:29:41.123Z,99.90
2019-05-14T07:32:11.261Z,99.90
2019-05-14T07:34:41.494Z,99.90
2019-05-14T07:37:11.363Z,99.90
2019-05-14T07:39:41.208Z,99.90
2019-05-14T07:42:11.342Z,99.90
2019-05-14T07:44:41.267Z,99.90
2019-05-14T07:47:11.263Z,99.90
2019-05-14T07:49:41.436Z,99.90
2019-05-14T07:52:11.473Z,99.90
2019-05-14T07:54:41.401Z,99.90
2019-05-14T07:57:11.692Z,99.90
2019-05-14T07:59:41.498Z,99.90
2019-05-14T08:02:12.922Z,99.90
2019-05-14T08:04:43.547Z,99.90
2019-05-14T08:07:13.398Z,99.90
2019-05-14T08:09:43.283Z,99.90
2019-05-14T08:12:16.259Z,99.90
2019-05-14T08:14:57.301Z,99.90
2019-05-14T08:17:18.974Z,99.90
2019-05-14T08:19:49.337Z,99.90
2019-05-14T08:22:19.614Z,99.90
2019-05-14T08:24:49.550Z,99.90
2019-05-14T08:27:19.456Z,99.90
2019-05-14T08:29:49.571Z,99.90
2019-05-14T08:32:19.490Z,99.90
2019-05-14T08:34:49.378Z,99.90
2019-05-14T08:37:19.643Z,99.90
2019-05-14T08:39:49.545Z,99.90
2019-05-14T08:42:19.434Z,99.90
2019-05-14T08:44:51.442Z,99.90
2019-05-14T08:47:21.563Z,99.90
2019-05-14T08:49:51.878Z,99.90
2019-05-14T08:52:21.804Z,99.90
2019-05-14T08:55:05.489Z,99.90
2019-05-14T08:57:23.703Z,99.90
2019-05-14T08:59:54.104Z,99.90
2019-05-14T09:02:24.359Z,99.90
2019-05-14T09:04:55.119Z,99.90
2019-05-14T09:07:25.574Z,99.90
2019-05-14T09:09:55.494Z,99.90
2019-05-14T09:12:25.351Z,99.90
2019-05-14T09:14:55.523Z,99.90
2019-05-14T09:17:25.765Z,99.90
2019-05-14T09:20:05.697Z,99.90
2019-05-14T09:22:28.976Z,99.90
2019-05-14T09:25:00.079Z,99.90
2019-05-14T09:27:30.671Z,99.90
2019-05-14T09:30:00.535Z,99.90
2019-05-14T09:32:30.790Z,99.90
2019-05-14T09:35:01.112Z,99.90
2019-05-14T09:37:30.982Z,99.90
2019-05-14T09:40:00.893Z,99.90
2019-05-14T09:42:31.075Z,99.90
2019-05-14T09:45:00.909Z,99.90
2019-05-14T09:47:31.177Z,99.90
2019-05-14T09:50:14.991Z,99.90
2019-05-14T09:52:32.949Z,99.90
2019-05-14T09:55:03.701Z,99.90
2019-05-14T09:57:33.557Z,99.90
2019-05-14T10:00:03.469Z,99.90
2019-05-14T10:02:33.937Z,99.90
2019-05-14T10:05:03.923Z,99.90
2019-05-14T10:07:33.863Z,99.90
2019-05-14T10:10:04.206Z,99.90
2019-05-14T10:12:39.341Z,99.90
2019-05-14T10:15:08.796Z,99.90
2019-05-14T10:17:39.520Z,99.90
2019-05-14T10:20:09.911Z,99.90
2019-05-14T10:22:40.046Z,99.90
2019-05-14T10:25:11.179Z,99.90
2019-05-14T10:27:41.046Z,99.90
2019-05-14T10:30:11.891Z,99.90
2019-05-14T10:32:42.514Z,99.90
2019-05-14T10:35:12.865Z,99.90
2019-05-14T10:37:43.115Z,99.90
2019-05-14T10:40:13.093Z,99.90
2019-05-14T10:42:43.061Z,99.90
2019-05-14T10:45:15.144Z,99.90
2019-05-14T10:47:45.328Z,99.90
2019-05-14T10:50:18.234Z,99.90
2019-05-14T10:52:48.879Z,99.90
2019-05-14T10:55:19.201Z,99.90
2019-05-14T10:57:54.133Z,99.90
2019-05-14T11:00:21.566Z,99.90
2019-05-14T11:02:51.938Z,99.90
2019-05-14T11:05:22.239Z,99.90
2019-05-14T11:07:52.159Z,99.90
2019-05-14T11:10:22.298Z,99.90
2019-05-14T11:12:55.041Z,99.90
2019-05-14T11:15:24.266Z,99.90
2019-05-14T11:17:54.610Z,99.90
2019-05-14T11:20:24.605Z,99.90
2019-05-14T11:22:54.538Z,99.90
2019-05-14T11:25:24.840Z,99.90
2019-05-14T11:27:54.656Z,99.90
2019-05-14T11:30:24.824Z,99.90
2019-05-14T11:32:55.292Z,99.90
2019-05-14T11:35:25.248Z,99.90
2019-05-14T11:37:55.140Z,99.90
2019-05-14T11:40:29.131Z,99.90
2019-05-14T11:42:59.224Z,99.90
2019-05-14T11:45:29.753Z,99.90
2019-05-14T11:47:59.962Z,99.90
2019-05-14T11:50:30.124Z,99.90
2019-05-14T11:53:00.108Z,99.90
2019-05-14T11:55:29.958Z,99.90
2019-05-14T11:58:00.082Z,99.90
2019-05-14T12:00:31.193Z,99.90
2019-05-14T12:03:01.573Z,99.90
2019-05-14T12:05:31.551Z,99.90
2019-05-14T12:08:01.427Z,99.70
2019-05-14T12:10:31.613Z,99.90
2019-05-14T12:13:01.495Z,99.20
2019-05-14T12:15:31.446Z,99.70
2019-05-14T12:18:01.975Z,97.40
2019-05-14T12:20:31.962Z,98.70
2019-05-14T12:23:01.820Z,98.50
2019-05-14T12:25:32.140Z,98.50
2019-05-14T12:28:02.047Z,99.70
2019-05-14T12:30:32.018Z,95.90
2019-05-14T12:33:02.695Z,97.00
2019-05-14T12:35:32.663Z,98.20
2019-05-14T12:38:02.788Z,97.70
2019-05-14T12:40:32.934Z,93.90
2019-05-14T12:43:02.847Z,92.20
2019-05-14T12:45:32.839Z,91.50
2019-05-14T12:48:03.446Z,91.90
2019-05-14T12:50:33.366Z,90.00
2019-05-14T12:53:03.320Z,91.70
2019-05-14T12:55:33.313Z,90.40
2019-05-14T12:58:03.218Z,93.40
2019-05-14T13:00:33.295Z,95.00
2019-05-14T13:03:03.923Z,92.00
2019-05-14T13:05:34.168Z,93.30
2019-05-14T13:08:04.155Z,93.30
2019-05-14T13:10:34.094Z,95.60
2019-05-14T13:13:03.975Z,95.00
2019-05-14T13:15:33.983Z,92.40
2019-05-14T13:18:04.564Z,86.40
2019-05-14T13:20:34.409Z,84.10
2019-05-14T13:23:04.357Z,84.20
2019-05-14T13:25:34.590Z,84.80
2019-05-14T13:28:04.564Z,83.10
2019-05-14T13:30:34.462Z,81.70
2019-05-14T13:33:04.974Z,82.30
2019-05-14T13:35:34.866Z,83.50
2019-05-14T13:38:04.779Z,82.60
2019-05-14T13:40:35.039Z,85.10
2019-05-14T13:43:05.043Z,85.70
2019-05-14T13:45:34.955Z,80.30
2019-05-14T13:48:05.182Z,79.30
2019-05-14T13:50:35.105Z,84.30
2019-05-14T13:53:09.241Z,85.30
2019-05-14T13:55:44.354Z,89.10
2019-05-14T13:58:09.427Z,89.30
2019-05-14T14:00:40.274Z,89.90
2019-05-14T14:03:10.512Z,87.70
2019-05-14T14:05:40.541Z,85.30
2019-05-14T14:08:10.731Z,88.20
2019-05-14T14:10:46.079Z,90.50
2019-05-14T14:13:12.435Z,90.30
2019-05-14T14:15:42.300Z,90.20
2019-05-14T14:18:12.531Z,87.60
2019-05-14T14:20:42.688Z,88.70
2019-05-14T14:23:22.314Z,88.00
2019-05-14T14:25:44.339Z,88.20
2019-05-14T14:28:14.288Z,89.20
2019-05-14T14:30:44.156Z,88.70
2019-05-14T14:33:14.623Z,85.60
2019-05-14T14:35:44.517Z,86.40
2019-05-14T14:38:14.416Z,87.30
2019-05-14T14:40:44.672Z,85.20
2019-05-14T14:43:14.697Z,85.10
2019-05-14T14:45:46.283Z,84.30
2019-05-14T14:48:19.936Z,82.70
2019-05-14T14:50:49.941Z,78.80
2019-05-14T14:53:40.846Z,80.80
2019-05-14T14:55:51.751Z,76.30
2019-05-14T14:58:21.785Z,77.10
2019-05-14T15:00:51.644Z,73.30
2019-05-14T15:03:22.484Z,72.70
2019-05-14T15:05:52.348Z,71.50
2019-05-14T15:08:22.202Z,73.60
2019-05-14T15:10:52.367Z,71.50
2019-05-14T15:13:22.250Z,72.50
2019-05-14T15:15:52.091Z,75.20
2019-05-14T15:18:22.709Z,73.40
2019-05-14T15:20:52.616Z,73.60
2019-05-14T15:23:22.439Z,67.70
2019-05-14T15:25:52.675Z,70.00
2019-05-14T15:28:22.595Z,71.90
2019-05-14T15:30:52.435Z,77.90
2019-05-14T15:33:22.917Z,79.00
2019-05-14T15:35:52.840Z,81.10
2019-05-14T15:38:22.760Z,82.50
2019-05-14T15:40:52.867Z,82.60
2019-05-14T15:43:22.726Z,77.80
2019-05-14T15:45:52.597Z,76.20
2019-05-14T15:48:23.126Z,73.70
2019-05-14T15:50:53.099Z,72.20
2019-05-14T15:53:22.997Z,74.70
2019-05-14T15:55:53.388Z,78.10
2019-05-14T15:58:23.253Z,78.10
2019-05-14T16:00:53.122Z,79.60
2019-05-14T16:03:23.340Z,81.80
2019-05-14T16:05:53.227Z,81.80
2019-05-14T16:08:23.096Z,81.90
2019-05-14T16:10:53.494Z,88.10
2019-05-14T16:13:23.362Z,83.60
2019-05-14T16:15:53.353Z,85.50
2019-05-14T16:18:23.879Z,83.40
2019-05-14T16:20:54.067Z,84.10
2019-05-14T16:23:23.886Z,86.80
2019-05-14T16:25:54.139Z,90.40
2019-05-14T16:28:24.030Z,84.40
2019-05-14T16:30:53.858Z,83.60
2019-05-14T16:33:24.082Z,82.40
2019-05-14T16:35:54.248Z,83.70
2019-05-14T16:38:24.136Z,82.60
2019-05-14T16:40:54.342Z,78.00
2019-05-14T16:43:24.216Z,71.50
2019-05-14T16:45:54.084Z,73.70
2019-05-14T16:48:24.395Z,66.60
2019-05-14T16:50:54.644Z,67.00
2019-05-14T16:53:24.547Z,72.30
2019-05-14T16:55:54.748Z,67.40
2019-05-14T16:58:24.569Z,71.10
2019-05-14T17:00:54.481Z,70.80
2019-05-14T17:03:24.792Z,71.60
2019-05-14T17:05:54.746Z,71.00
2019-05-14T17:08:24.609Z,71.70
2019-05-14T17:10:54.841Z,75.20
2019-05-14T17:13:24.706Z,77.20
2019-05-14T17:15:54.574Z,76.00
2019-05-14T17:18:24.825Z,77.20
2019-05-14T17:20:54.918Z,77.10
2019-05-14T17:23:24.797Z,76.00
2019-05-14T17:25:54.756Z,77.30
2019-05-14T17:28:24.735Z,77.00
2019-05-14T17:30:54.714Z,77.10
2019-05-14T17:33:24.625Z,74.10
2019-05-14T17:35:54.728Z,78.40
2019-05-14T17:38:24.660Z,76.90
2019-05-14T17:40:54.586Z,77.70
2019-05-14T17:43:24.570Z,78.10
2019-05-14T17:45:54.532Z,78.40
2019-05-14T17:48:24.469Z,80.90
2019-05-14T17:50:54.493Z,84.10
2019-05-14T17:53:24.349Z,85.60
2019-05-14T17:55:54.279Z,85.80
2019-05-14T17:58:24.389Z,87.20
2019-05-14T18:00:54.229Z,88.40
2019-05-14T18:03:24.156Z,89.60
2019-05-14T18:05:54.526Z,90.50
2019-05-14T18:08:24.794Z,90.60
2019-05-14T18:10:58.037Z,91.20
2019-05-14T18:13:26.552Z,90.90
2019-05-14T18:15:58.109Z,90.20
2019-05-14T18:18:29.155Z,90.20
2019-05-14T18:20:59.171Z,90.50
2019-05-14T18:23:29.366Z,90.70
2019-05-14T18:26:08.069Z,90.70
2019-05-14T18:28:31.298Z,90.10
2019-05-14T18:31:01.366Z,90.50
2019-05-14T18:33:31.673Z,92.00
2019-05-14T18:36:02.037Z,92.70
2019-05-14T18:38:32.137Z,92.70
2019-05-14T18:41:02.138Z,92.60
2019-05-14T18:43:32.193Z,92.60
2019-05-14T18:46:02.075Z,91.40
2019-05-14T18:48:31.965Z,90.70
2019-05-14T18:51:02.248Z,90.40
2019-05-14T18:53:32.514Z,92.20
2019-05-14T18:56:16.428Z,92.80
2019-05-14T18:58:34.459Z,94.10
2019-05-14T19:01:04.322Z,96.00
2019-05-14T19:03:34.300Z,96.00
2019-05-14T19:06:04.477Z,96.70
2019-05-14T19:08:34.676Z,98.20
2019-05-14T19:11:04.727Z,98.90
2019-05-14T19:13:35.016Z,99.50
2019-05-14T19:16:04.840Z,99.90
2019-05-14T19:18:34.851Z,99.90
2019-05-14T19:21:05.132Z,99.90
2019-05-14T19:23:35.387Z,99.90
2019-05-14T19:26:05.428Z,99.90
2019-05-14T19:28:35.604Z,99.90
2019-05-14T19:31:05.368Z,99.90
2019-05-14T19:33:35.292Z,99.90
2019-05-14T19:36:05.425Z,99.90
2019-05-14T19:38:35.715Z,99.90
2019-05-14T19:41:05.677Z,99.90
2019-05-14T19:43:35.851Z,99.90
2019-05-14T19:46:05.884Z,99.90
2019-05-14T19:48:35.846Z,99.90
2019-05-14T19:51:08.238Z,99.90
2019-05-14T19:53:39.162Z,99.90
2019-05-14T19:56:09.788Z,99.90
2019-05-14T19:58:39.799Z,99.90
2019-05-14T20:01:09.619Z,99.90
2019-05-14T20:03:40.247Z,99.90
2019-05-14T20:06:10.287Z,99.90
2019-05-14T20:08:40.213Z,99.90
2019-05-14T20:11:10.508Z,99.90
2019-05-14T20:13:40.419Z,99.90
2019-05-14T20:16:10.280Z,99.90
2019-05-14T20:18:40.431Z,99.90
2019-05-14T20:21:10.333Z,99.90
2019-05-14T20:23:40.443Z,99.90
2019-05-14T20:26:10.583Z,99.90
2019-05-14T20:28:40.464Z,99.90
2019-05-14T20:31:10.852Z,99.90
2019-05-14T20:33:41.089Z,99.90
2019-05-14T20:36:10.951Z,99.90
2019-05-14T20:38:41.048Z,99.90
2019-05-14T20:41:11.041Z,99.90
2019-05-14T20:43:40.891Z,99.90
2019-05-14T20:46:10.782Z,99.90
2019-05-14T20:48:40.845Z,99.90
2019-05-14T20:51:10.707Z,99.90
2019-05-14T20:53:40.778Z,99.90
2019-05-14T20:56:10.691Z,99.90
2019-05-14T20:58:40.559Z,99.90
2019-05-14T21:01:11.436Z,99.90
2019-05-14T21:03:44.008Z,99.90
2019-05-14T21:06:13.433Z,99.90
2019-05-14T21:08:43.659Z,99.90
2019-05-14T21:11:13.597Z,99.90
2019-05-14T21:13:43.819Z,99.90
2019-05-14T21:16:13.624Z,99.90
2019-05-14T21:18:43.462Z,99.90
2019-05-14T21:21:13.666Z,99.90
2019-05-14T21:23:43.814Z,99.90
2019-05-14T21:26:13.720Z,99.90
2019-05-14T21:28:43.922Z,99.90
2019-05-14T21:31:13.722Z,99.90
2019-05-14T21:33:43.582Z,99.90
2019-05-14T21:36:13.771Z,99.90
2019-05-14T21:38:43.930Z,99.90
2019-05-14T21:41:13.782Z,99.90
2019-05-14T21:43:43.619Z,99.90
2019-05-14T21:46:13.843Z,99.90
2019-05-14T21:48:43.698Z,99.90
2019-05-14T21:51:13.551Z,99.90
2019-05-14T21:53:43.691Z,99.90
2019-05-14T21:56:13.796Z,99.90
2019-05-14T21:58:43.623Z,99.90
2019-05-14T22:01:13.770Z,99.90
2019-05-14T22:03:43.744Z,99.90
2019-05-14T22:06:13.575Z,99.90
2019-05-14T22:08:43.801Z,99.90
2019-05-14T22:11:14.046Z,99.90
2019-05-14T22:13:44.221Z,99.90
2019-05-14T22:16:14.075Z,99.90
2019-05-14T22:18:43.943Z,99.90
2019-05-14T22:21:14.078Z,99.90
2019-05-14T22:23:43.932Z,99.90
2019-05-14T22:26:13.961Z,99.90
2019-05-14T22:28:44.433Z,99.90
2019-05-14T22:31:16.409Z,99.90
2019-05-14T22:33:46.028Z,99.90
2019-05-14T22:36:20.894Z,99.90
2019-05-14T22:38:48.244Z,99.90
2019-05-14T22:41:18.647Z,99.90
2019-05-14T22:43:51.349Z,99.90
2019-05-14T22:46:20.271Z,99.90
2019-05-14T22:48:51.666Z,99.90
2019-05-14T22:51:21.931Z,99.90
2019-05-14T22:53:52.188Z,99.90
2019-05-14T22:56:22.559Z,99.90
2019-05-14T22:58:52.411Z,99.90
2019-05-14T23:01:22.658Z,99.90
2019-05-14T23:03:52.618Z,99.90
2019-05-14T23:06:22.397Z,99.90
2019-05-14T23:08:52.606Z,99.90
2019-05-14T23:11:22.827Z,99.90
2019-05-14T23:13:52.719Z,99.90
2019-05-14T23:16:33.114Z,99.90
2019-05-14T23:18:54.392Z,99.90
2019-05-14T23:21:24.455Z,99.90
2019-05-14T23:23:54.316Z,99.90
2019-05-14T23:26:24.528Z,99.90
2019-05-14T23:28:54.823Z,99.90
2019-05-14T23:31:24.745Z,99.90
2019-05-14T23:33:54.615Z,99.90
2019-05-14T23:36:24.874Z,99.90
2019-05-14T23:38:58.997Z,99.90
2019-05-14T23:41:29.390Z,99.90
2019-05-14T23:43:59.276Z,99.90
2019-05-14T23:46:29.315Z,99.90
2019-05-14T23:48:59.653Z,99.90
2019-05-14T23:51:29.526Z,99.90
2019-05-14T23:53:59.386Z,99.90
2019-05-14T23:56:30.012Z,99.90
2019-05-14T23:59:02.035Z,99.90
